TimeCST,TemperatureF,Dew PointF,Humidity,Sea Level PressureIn,VisibilityMPH,Wind Direction,Wind SpeedMPH,Gust SpeedMPH,PrecipitationIn,Events,Conditions,WindDirDegrees,DateUTC
12:54 AM,14.0,8.1,77,30.40,10.0,East,4.6,-,N/A,,Clear,80,2013-02-21 06:54:00
1:54 AM,12.9,8.1,81,30.40,10.0,ENE,3.5,-,N/A,,Clear,70,2013-02-21 07:54:00
2:54 AM,12.0,8.1,84,30.40,10.0,Calm,Calm,-,N/A,,Scattered Clouds,0,2013-02-21 08:54:00
3:54 AM,12.0,7.0,80,30.37,10.0,ENE,8.1,-,N/A,,Clear,70,2013-02-21 09:54:00
4:54 AM,12.9,7.0,77,30.33,10.0,East,10.4,-,N/A,,Clear,90,2013-02-21 10:54:00
5:54 AM,10.9,6.1,81,30.39,10.0,East,3.5,-,N/A,,Clear,80,2013-02-21 11:54:00
6:54 AM,12.9,7.0,77,30.36,10.0,ENE,6.9,-,N/A,,Clear,60,2013-02-21 12:54:00
7:54 AM,15.1,9.0,77,30.37,10.0,East,8.1,-,N/A,,Clear,100,2013-02-21 13:54:00
8:54 AM,17.1,9.0,71,30.34,10.0,East,13.8,-,N/A,,Clear,90,2013-02-21 14:54:00
9:54 AM,19.0,10.9,71,30.35,10.0,East,13.8,-,N/A,,Clear,90,2013-02-21 15:54:00
10:54 AM,21.0,12.0,68,30.33,10.0,ESE,15.0,20.7,N/A,,Clear,110,2013-02-21 16:54:00
11:54 AM,24.1,12.9,62,30.29,10.0,East,18.4,-,N/A,,Clear,90,2013-02-21 17:54:00
12:54 PM,24.1,14.0,65,30.24,10.0,ESE,19.6,-,N/A,,Partly Cloudy,110,2013-02-21 18:54:00
1:54 PM,25.0,15.1,66,30.19,10.0,East,19.6,26.5,N/A,,Scattered Clouds,90,2013-02-21 19:54:00
2:50 PM,24.8,15.8,69,30.13,10.0,East,21.9,27.6,N/A,,Mostly Cloudy,90,2013-02-21 20:50:00
2:54 PM,25.0,15.1,66,30.17,10.0,East,21.9,28.8,N/A,,Mostly Cloudy,90,2013-02-21 20:54:00
3:02 PM,24.8,15.8,69,30.12,10.0,East,26.5,29.9,N/A,,Mostly Cloudy,90,2013-02-21 21:02:00
3:54 PM,25.0,14.0,63,30.15,10.0,East,24.2,29.9,N/A,,Mostly Cloudy,90,2013-02-21 21:54:00
4:22 PM,24.8,14.0,64,30.09,10.0,East,23.0,31.1,N/A,,Mostly Cloudy,100,2013-02-21 22:22:00
4:54 PM,24.1,15.1,69,30.13,10.0,East,20.7,25.3,N/A,,Overcast,80,2013-02-21 22:54:00
5:54 PM,23.0,17.1,78,30.12,10.0,East,15.0,-,N/A,,Overcast,80,2013-02-21 23:54:00
6:03 PM,23.0,17.6,80,30.07,10.0,East,17.3,23.0,N/A,,Overcast,80,2013-02-22 00:03:00
6:54 PM,21.9,18.0,85,30.08,7.0,ENE,19.6,-,0.00,Snow,Light Snow,70,2013-02-22 00:54:00
7:03 PM,21.2,17.6,86,30.02,1.8,ENE,19.6,-,0.00,Snow,Light Snow,70,2013-02-22 01:03:00
7:14 PM,21.2,19.4,93,30.01,3.0,ENE,18.4,28.8,0.01,Snow,Light Snow,70,2013-02-22 01:14:00
7:54 PM,21.9,19.0,89,30.04,5.0,ENE,18.4,27.6,0.01,Snow,Light Snow,60,2013-02-22 01:54:00
8:04 PM,21.2,19.4,93,29.99,1.8,ENE,20.7,26.5,0.00,Snow,Light Snow,70,2013-02-22 02:04:00
8:18 PM,21.2,19.4,93,29.97,1.0,ENE,19.6,28.8,0.01,Snow,Light Snow,60,2013-02-22 02:18:00
8:26 PM,21.2,19.4,93,29.97,0.8,ENE,18.4,-,0.01,Snow,Light Snow,60,2013-02-22 02:26:00
8:54 PM,21.9,19.9,92,30.00,0.8,ENE,18.4,-,0.03,Snow,Light Snow,60,2013-02-22 02:54:00
9:02 PM,23.0,19.4,86,29.95,1.2,ENE,17.3,27.6,0.00,Snow,Light Snow,60,2013-02-22 03:02:00
9:12 PM,23.0,19.4,86,29.95,1.5,ENE,17.3,-,0.01,Snow,Light Snow,60,2013-02-22 03:12:00
9:39 PM,23.0,19.4,86,29.93,0.8,ENE,19.6,-,0.01,Snow,Light Snow,60,2013-02-22 03:39:00
9:54 PM,23.0,19.9,88,29.98,0.5,ENE,19.6,-,0.03,Fog-Snow,Snow,60,2013-02-22 03:54:00
10:36 PM,23.0,21.2,93,29.93,0.2,ENE,16.1,-,0.06,Fog-Snow,Snow,60,2013-02-22 04:36:00
10:43 PM,23.0,21.2,93,29.93,0.5,ENE,13.8,-,0.07,Fog-Snow,Snow,70,2013-02-22 04:43:00
10:54 PM,23.0,21.0,92,29.97,0.8,ENE,12.7,-,0.12,Snow,Light Snow,70,2013-02-22 04:54:00
11:38 PM,23.0,21.2,93,29.90,1.0,ENE,12.7,-,0.04,Snow,Light Snow,60,2013-02-22 05:38:00
11:49 PM,23.0,21.2,93,29.90,2.5,ENE,11.5,-,0.08,Snow,Light Snow,60,2013-02-22 05:49:00
11:54 PM,23.0,21.2,93,29.90,3.0,ENE,11.5,-,N/A,Snow,Light Snow,70,2013-02-22 05:54:00